createdAt,value
2019-02-16T00:00:47.135Z,102645.17
2019-02-16T00:02:56.468Z,102645.11
2019-02-16T00:05:03.458Z,102651.19
2019-02-16T00:07:10.354Z,102656.38
2019-02-16T00:09:17.374Z,102650.66
2019-02-16T00:11:25.913Z,102652.91
2019-02-16T00:13:33.074Z,102654.17
2019-02-16T00:15:40.422Z,102649.25
2019-02-16T00:17:47.683Z,102643.20
2019-02-16T00:19:54.353Z,102646.05
2019-02-16T00:22:01.133Z,102640.32
2019-02-16T00:24:08.605Z,102638.29
2019-02-16T00:26:15.687Z,102629.42
2019-02-16T00:28:23.405Z,102628.30
2019-02-16T00:30:30.599Z,102627.70
2019-02-16T00:32:37.431Z,102629.33
2019-02-16T00:34:44.455Z,102637.34
2019-02-16T00:36:51.400Z,102623.45
2019-02-16T00:38:58.506Z,102612.61
2019-02-16T00:41:05.815Z,102612.20
2019-02-16T00:43:12.728Z,102602.14
2019-02-16T00:45:19.619Z,102603.85
2019-02-16T00:47:27.313Z,102612.81
2019-02-16T00:49:34.834Z,102606.00
2019-02-16T00:51:42.480Z,102598.16
2019-02-16T00:53:49.710Z,102599.08
2019-02-16T00:55:57.027Z,102598.10
2019-02-16T00:58:04.370Z,102602.44
2019-02-16T01:00:13.634Z,102606.99
2019-02-16T01:02:21.299Z,102599.92
2019-02-16T01:04:28.340Z,102600.80
2019-02-16T01:06:35.621Z,102598.63
2019-02-16T01:08:42.395Z,102590.78
2019-02-16T01:10:49.262Z,102592.20
2019-02-16T01:12:56.298Z,102589.16
2019-02-16T01:15:03.704Z,102594.89
2019-02-16T01:17:10.735Z,102596.18
2019-02-16T01:19:17.842Z,102580.56
2019-02-16T01:21:24.774Z,102589.05
2019-02-16T01:23:32.046Z,102579.11
2019-02-16T01:25:39.496Z,102575.93
2019-02-16T01:27:46.660Z,102577.10
2019-02-16T01:29:53.282Z,102578.34
2019-02-16T01:32:00.256Z,102574.83
2019-02-16T01:34:07.604Z,102572.33
2019-02-16T01:36:14.444Z,102571.35
2019-02-16T01:38:21.402Z,102564.30
2019-02-16T01:40:30.083Z,102561.94
2019-02-16T01:42:37.101Z,102563.08
2019-02-16T01:44:43.969Z,102565.67
2019-02-16T01:46:51.558Z,102558.69
2019-02-16T01:48:59.018Z,102553.16
2019-02-16T01:51:06.122Z,102559.57
2019-02-16T01:53:13.111Z,102557.77
2019-02-16T01:55:20.631Z,102553.00
2019-02-16T01:57:27.796Z,102545.26
2019-02-16T01:59:35.692Z,102547.34
2019-02-16T02:01:43.283Z,102542.89
2019-02-16T02:03:50.786Z,102548.04
2019-02-16T02:05:58.334Z,102538.06
2019-02-16T02:08:05.956Z,102546.55
2019-02-16T02:10:13.150Z,102543.99
2019-02-16T02:12:20.420Z,102543.59
2019-02-16T02:14:27.535Z,102542.77
2019-02-16T02:16:35.793Z,102540.48
2019-02-16T02:18:43.228Z,102536.44
2019-02-16T02:20:50.371Z,102539.50
2019-02-16T02:22:57.484Z,102536.44
2019-02-16T02:25:04.581Z,102527.88
2019-02-16T02:27:12.198Z,102540.84
2019-02-16T02:29:19.238Z,102530.39
2019-02-16T02:31:26.975Z,102531.69
2019-02-16T02:33:34.339Z,102523.75
2019-02-16T02:35:41.862Z,102526.08
2019-02-16T02:37:49.285Z,102525.36
2019-02-16T02:39:56.432Z,102517.85
2019-02-16T02:42:03.567Z,102518.84
2019-02-16T02:44:10.491Z,102524.90
2019-02-16T02:46:17.493Z,102518.62
2019-02-16T02:48:24.650Z,102517.69
2019-02-16T02:50:31.507Z,102517.66
2019-02-16T02:52:39.236Z,102514.66
2019-02-16T02:54:46.810Z,102520.18
2019-02-16T02:56:54.023Z,102512.59
2019-02-16T02:59:01.074Z,102503.27
2019-02-16T03:01:08.172Z,102507.36
2019-02-16T03:03:15.750Z,102506.98
2019-02-16T03:05:22.729Z,102508.65
2019-02-16T03:07:31.879Z,102511.03
2019-02-16T03:09:38.839Z,102508.48
2019-02-16T03:11:45.929Z,102517.70
2019-02-16T03:13:53.218Z,102504.97
2019-02-16T03:16:01.317Z,102506.88
2019-02-16T03:18:08.598Z,102499.62
2019-02-16T03:20:16.257Z,102501.02
2019-02-16T03:22:24.309Z,102507.19
2019-02-16T03:24:31.683Z,102499.62
2019-02-16T03:26:44.611Z,102497.41
2019-02-16T03:29:10.992Z,102499.52
2019-02-16T03:31:25.113Z,102500.34
2019-02-16T03:33:45.036Z,102492.27
2019-02-16T03:36:20.993Z,102494.55
2019-02-16T03:38:40.859Z,102499.11
2019-02-16T03:40:50.600Z,102497.11
2019-02-16T03:42:57.926Z,102490.26
2019-02-16T03:45:07.115Z,102491.55
2019-02-16T03:47:14.403Z,102491.04
2019-02-16T03:49:21.871Z,102491.23
2019-02-16T03:51:30.195Z,102486.05
2019-02-16T03:53:37.763Z,102487.04
2019-02-16T03:55:44.765Z,102483.61
2019-02-16T03:57:52.354Z,102478.70
2019-02-16T03:59:59.184Z,102468.50
2019-02-16T04:02:06.863Z,102452.75
2019-02-16T04:04:14.621Z,102453.73
2019-02-16T04:06:22.032Z,102460.44
2019-02-16T04:08:30.321Z,102452.68
2019-02-16T04:10:37.468Z,102455.33
2019-02-16T04:12:44.325Z,102448.16
2019-02-16T04:14:51.602Z,102456.02
2019-02-16T04:16:59.570Z,102460.61
2019-02-16T04:19:06.643Z,102459.63
2019-02-16T04:21:13.809Z,102459.89
2019-02-16T04:23:21.256Z,102459.20
2019-02-16T04:25:28.709Z,102462.30
2019-02-16T04:27:35.589Z,102455.88
2019-02-16T04:29:42.971Z,102458.59
2019-02-16T04:31:49.929Z,102452.17
2019-02-16T04:33:57.148Z,102448.75
2019-02-16T04:36:04.069Z,102447.59
2019-02-16T04:38:11.379Z,102446.08
2019-02-16T04:40:18.832Z,102449.95
2019-02-16T04:42:26.449Z,102456.83
2019-02-16T04:44:33.496Z,102446.56
2019-02-16T04:46:41.824Z,102451.66
2019-02-16T04:48:48.875Z,102452.36
2019-02-16T04:50:56.603Z,102451.27
2019-02-16T04:53:04.060Z,102452.63
2019-02-16T04:55:11.725Z,102446.09
2019-02-16T04:57:19.283Z,102447.60
2019-02-16T04:59:26.602Z,102441.80
2019-02-16T05:01:33.790Z,102442.83
2019-02-16T05:03:41.088Z,102445.41
2019-02-16T05:05:49.528Z,102445.08
2019-02-16T05:07:56.370Z,102447.77
2019-02-16T05:10:05.090Z,102451.42
2019-02-16T05:12:12.616Z,102449.39
2019-02-16T05:14:19.611Z,102445.27
2019-02-16T05:16:26.833Z,102446.75
2019-02-16T05:18:34.177Z,102448.08
2019-02-16T05:20:41.512Z,102454.02
2019-02-16T05:22:48.616Z,102447.95
2019-02-16T05:24:55.586Z,102451.38
2019-02-16T05:27:03.007Z,102451.77
2019-02-16T05:29:10.491Z,102449.48
2019-02-16T05:31:17.693Z,102454.20
2019-02-16T05:33:25.220Z,102451.38
2019-02-16T05:35:32.278Z,102448.23
2019-02-16T05:37:39.993Z,102445.84
2019-02-16T05:39:47.008Z,102451.34
2019-02-16T05:41:54.478Z,102448.64
2019-02-16T05:44:01.886Z,102447.53
2019-02-16T05:46:09.118Z,102448.53
2019-02-16T05:48:16.591Z,102454.58
2019-02-16T05:50:23.188Z,102454.73
2019-02-16T05:52:30.378Z,102455.22
2019-02-16T05:54:38.213Z,102449.72
2019-02-16T05:56:46.948Z,102453.25
2019-02-16T05:58:54.129Z,102457.02
2019-02-16T06:01:00.972Z,102460.23
2019-02-16T06:03:08.106Z,102458.42
2019-02-16T06:05:17.485Z,102460.16
2019-02-16T06:07:24.363Z,102460.13
2019-02-16T06:09:31.318Z,102459.98
2019-02-16T06:11:38.475Z,102460.97
2019-02-16T06:13:45.669Z,102465.77
2019-02-16T06:15:52.563Z,102465.33
2019-02-16T06:17:59.503Z,102470.13
2019-02-16T06:20:08.953Z,102472.97
2019-02-16T06:22:16.051Z,102473.70
2019-02-16T06:24:23.243Z,102474.19
2019-02-16T06:26:29.926Z,102465.92
2019-02-16T06:28:37.125Z,102468.98
2019-02-16T06:30:44.633Z,102467.62
2019-02-16T06:32:53.143Z,102462.11
2019-02-16T06:35:10.913Z,102462.08
2019-02-16T06:37:25.010Z,102473.56
2019-02-16T06:39:32.561Z,102466.03
2019-02-16T06:41:40.124Z,102476.59
2019-02-16T06:43:46.836Z,102480.61
2019-02-16T06:45:53.820Z,102483.23
2019-02-16T06:48:00.794Z,102477.47
2019-02-16T06:50:09.424Z,102470.83
2019-02-16T06:52:17.504Z,102470.02
2019-02-16T06:54:24.263Z,102472.93
2019-02-16T06:56:34.304Z,102470.30
2019-02-16T06:58:41.413Z,102463.88
2019-02-16T07:00:48.650Z,102467.62
2019-02-16T07:02:55.932Z,102474.11
2019-02-16T07:05:02.742Z,102479.28
2019-02-16T07:07:11.228Z,102472.64
2019-02-16T07:09:19.050Z,102478.40
2019-02-16T07:11:27.939Z,102470.86
2019-02-16T07:13:34.877Z,102467.01
2019-02-16T07:15:41.805Z,102474.94
2019-02-16T07:17:53.211Z,102473.87
2019-02-16T07:20:00.372Z,102472.27
2019-02-16T07:22:08.058Z,102471.03
2019-02-16T07:24:14.824Z,102474.77
2019-02-16T07:26:22.046Z,102465.31
2019-02-16T07:28:28.911Z,102463.15
2019-02-16T07:30:35.796Z,102460.40
2019-02-16T07:32:42.648Z,102452.83
2019-02-16T07:34:49.543Z,102446.99
2019-02-16T07:36:56.863Z,102445.94
2019-02-16T07:39:05.312Z,102450.09
2019-02-16T07:41:12.812Z,102451.58
2019-02-16T07:43:36.592Z,102442.70
2019-02-16T07:45:45.360Z,102448.84
2019-02-16T07:48:13.062Z,102439.25
2019-02-16T07:50:21.626Z,102447.95
2019-02-16T07:52:33.483Z,102448.67
2019-02-16T07:54:40.878Z,102440.02
2019-02-16T07:56:58.896Z,102436.76
2019-02-16T07:59:16.976Z,102436.86
2019-02-16T08:01:30.047Z,102448.88
2019-02-16T08:03:38.765Z,102443.70
2019-02-16T08:06:00.283Z,102444.38
2019-02-16T08:08:19.242Z,102441.11
2019-02-16T08:10:33.305Z,102443.29
2019-02-16T08:12:41.837Z,102432.14
2019-02-16T08:14:48.762Z,102437.52
2019-02-16T08:17:00.636Z,102431.30
2019-02-16T08:19:28.555Z,102432.03
2019-02-16T08:21:39.108Z,102418.11
2019-02-16T08:24:05.647Z,102415.22
2019-02-16T08:26:17.285Z,102412.52
2019-02-16T08:28:26.871Z,102406.64
2019-02-16T08:30:38.409Z,102407.95
2019-02-16T08:32:53.442Z,102402.95
2019-02-16T08:35:18.310Z,102406.94
2019-02-16T08:37:26.896Z,102413.88
2019-02-16T08:39:35.633Z,102410.05
2019-02-16T08:41:50.215Z,102406.40
2019-02-16T08:44:03.176Z,102405.89
2019-02-16T08:46:31.337Z,102409.28
2019-02-16T08:48:56.271Z,102399.17
2019-02-16T08:51:04.586Z,102401.92
2019-02-16T08:53:20.383Z,102402.09
2019-02-16T08:55:35.445Z,102406.07
2019-02-16T08:57:46.918Z,102407.98
2019-02-16T09:00:02.531Z,102409.23
2019-02-16T09:02:11.432Z,102409.84
2019-02-16T09:04:26.385Z,102408.79
2019-02-16T09:06:33.066Z,102407.16
2019-02-16T09:08:41.785Z,102405.06
2019-02-16T09:11:02.876Z,102396.75
2019-02-16T09:13:18.067Z,102401.69
2019-02-16T09:15:27.328Z,102393.58
2019-02-16T09:17:40.835Z,102390.08
2019-02-16T09:19:47.284Z,102392.18
2019-02-16T09:21:54.780Z,102390.23
2019-02-16T09:24:21.206Z,102394.52
2019-02-16T09:26:36.265Z,102398.64
2019-02-16T09:28:48.116Z,102396.58
2019-02-16T09:31:15.024Z,102392.06
2019-02-16T09:33:26.686Z,102387.48
2019-02-16T09:35:38.685Z,102386.26
2019-02-16T09:37:56.474Z,102379.26
2019-02-16T09:40:03.359Z,102383.64
2019-02-16T09:42:28.592Z,102376.77
2019-02-16T09:44:44.174Z,102380.92
2019-02-16T09:46:59.844Z,102379.59
2019-02-16T09:49:17.593Z,102376.39
2019-02-16T09:51:35.935Z,102378.23
2019-02-16T09:54:08.190Z,102372.84
2019-02-16T09:56:22.473Z,102366.99
2019-02-16T09:58:34.114Z,102373.67
2019-02-16T10:00:50.014Z,102373.48
2019-02-16T10:03:15.444Z,102380.11
2019-02-16T10:05:33.981Z,102374.02
2019-02-16T10:07:48.625Z,102368.38
2019-02-16T10:09:56.945Z,102367.84
2019-02-16T10:12:13.154Z,102363.32
2019-02-16T10:14:28.264Z,102357.55
2019-02-16T10:16:39.786Z,102355.47
2019-02-16T10:18:52.279Z,102352.55
2019-02-16T10:21:00.824Z,102346.98
2019-02-16T10:23:08.842Z,102343.06
2019-02-16T10:25:24.276Z,102333.69
2019-02-16T10:27:52.474Z,102333.91
2019-02-16T10:30:11.414Z,102331.11
2019-02-16T10:32:30.565Z,102331.44
2019-02-16T10:34:53.917Z,102328.87
2019-02-16T10:37:15.042Z,102335.38
2019-02-16T10:39:26.836Z,102322.83
2019-02-16T10:41:38.527Z,102318.76
2019-02-16T10:44:00.793Z,102315.91
2019-02-16T10:46:26.586Z,102312.70
2019-02-16T10:48:42.746Z,102315.80
2019-02-16T10:50:54.246Z,102304.64
2019-02-16T10:53:15.088Z,102295.02
2019-02-16T10:55:40.356Z,102298.17
2019-02-16T10:57:52.053Z,102285.19
2019-02-16T11:00:01.007Z,102273.17
2019-02-16T11:02:17.060Z,102276.44
2019-02-16T11:04:38.007Z,102273.48
2019-02-16T11:06:57.610Z,102270.89
2019-02-16T11:09:16.363Z,102265.72
2019-02-16T11:11:31.533Z,102260.95
2019-02-16T11:13:44.474Z,102257.09
2019-02-16T11:15:56.365Z,102261.52
2019-02-16T11:18:11.124Z,102254.68
2019-02-16T11:20:35.881Z,102249.94
2019-02-16T11:23:01.113Z,102240.00
2019-02-16T11:25:17.325Z,102248.78
2019-02-16T11:27:35.127Z,102247.06
2019-02-16T11:29:49.372Z,102241.41
2019-02-16T11:32:01.493Z,102232.66
2019-02-16T11:34:13.785Z,102229.25
2019-02-16T11:36:27.015Z,102225.31
2019-02-16T11:38:33.792Z,102220.09
2019-02-16T11:40:48.199Z,102216.16
2019-02-16T11:43:00.135Z,102214.42
2019-02-16T11:45:27.565Z,102205.67
2019-02-16T11:47:54.224Z,102206.13
2019-02-16T11:50:05.500Z,102203.92
2019-02-16T11:52:33.894Z,102197.38
2019-02-16T11:54:45.657Z,102197.38
2019-02-16T11:56:52.693Z,102196.02
2019-02-16T11:59:13.783Z,102190.33
2019-02-16T12:01:32.917Z,102188.56
2019-02-16T12:03:58.954Z,102182.78
2019-02-16T12:06:23.054Z,102184.06
2019-02-16T12:08:31.464Z,102178.81
2019-02-16T12:10:39.954Z,102175.73
2019-02-16T12:12:54.120Z,102179.22
2019-02-16T12:15:02.717Z,102177.88
2019-02-16T12:17:11.485Z,102177.84
2019-02-16T12:19:22.915Z,102175.64
2019-02-16T12:21:57.849Z,102174.76
2019-02-16T12:24:10.053Z,102167.33
2019-02-16T12:26:18.504Z,102170.78
2019-02-16T12:28:44.825Z,102163.80
2019-02-16T12:30:56.215Z,102162.02
2019-02-16T12:33:05.303Z,102163.31
2019-02-16T12:35:13.863Z,102164.65
2019-02-16T12:37:22.526Z,102163.33
2019-02-16T12:39:34.517Z,102161.11
2019-02-16T12:41:46.175Z,102151.48
2019-02-16T12:43:54.540Z,102146.19
2019-02-16T12:46:03.124Z,102141.84
2019-02-16T12:48:20.634Z,102137.91
2019-02-16T12:50:35.434Z,102129.12
2019-02-16T12:52:50.165Z,102125.05
2019-02-16T12:55:02.477Z,102119.75
2019-02-16T12:57:26.845Z,102119.66
2019-02-16T12:59:38.155Z,102115.66
2019-02-16T13:01:44.800Z,102117.87
2019-02-16T13:04:11.706Z,102120.50
2019-02-16T13:06:32.345Z,102115.72
2019-02-16T13:08:43.631Z,102112.63
2019-02-16T13:10:52.325Z,102116.03
2019-02-16T13:13:04.174Z,102108.16
2019-02-16T13:15:12.771Z,102115.53
2019-02-16T13:17:39.899Z,102109.41
2019-02-16T13:19:54.667Z,102099.34
2019-02-16T13:22:09.934Z,102097.98
2019-02-16T13:24:18.445Z,102090.95
2019-02-16T13:26:27.277Z,102093.61
2019-02-16T13:28:52.754Z,102096.23
2019-02-16T13:31:17.674Z,102086.53
2019-02-16T13:33:38.735Z,102074.67
2019-02-16T13:35:58.501Z,102075.16
2019-02-16T13:38:17.104Z,102063.84
2019-02-16T13:40:38.624Z,102062.12
2019-02-16T13:42:45.504Z,102058.59
2019-02-16T13:44:54.114Z,102058.55
2019-02-16T13:47:12.071Z,102063.77
2019-02-16T13:49:23.741Z,102047.93
2019-02-16T13:51:39.004Z,102045.74
2019-02-16T13:53:47.563Z,102045.74
2019-02-16T13:55:56.133Z,102049.61
2019-02-16T13:58:11.122Z,102038.70
2019-02-16T14:00:21.243Z,102035.62
2019-02-16T14:02:32.833Z,102029.38
2019-02-16T14:04:47.593Z,102024.56
2019-02-16T14:07:04.112Z,102014.53
2019-02-16T14:09:19.673Z,102011.86
2019-02-16T14:11:28.998Z,102008.00
2019-02-16T14:13:46.328Z,102008.05
2019-02-16T14:15:57.798Z,102010.23
2019-02-16T14:18:05.081Z,102013.77
2019-02-16T14:20:12.483Z,102008.09
2019-02-16T14:22:19.713Z,102004.14
2019-02-16T14:24:40.473Z,101991.92
2019-02-16T14:26:47.313Z,101984.05
2019-02-16T14:28:54.502Z,101982.37
2019-02-16T14:31:01.472Z,101981.98
2019-02-16T14:33:09.404Z,101975.45
2019-02-16T14:35:18.107Z,101975.38
2019-02-16T14:37:28.190Z,101975.38
2019-02-16T14:39:35.446Z,101966.22
2019-02-16T14:41:42.473Z,101962.72
2019-02-16T14:43:49.517Z,101953.56
2019-02-16T14:45:56.654Z,101957.86
2019-02-16T14:48:03.678Z,101951.38
2019-02-16T14:50:11.865Z,101951.89
2019-02-16T14:52:20.451Z,101954.53
2019-02-16T14:54:28.954Z,101952.33
2019-02-16T14:56:36.748Z,101948.48
2019-02-16T14:58:43.794Z,101948.55
2019-02-16T15:00:52.106Z,101952.13
2019-02-16T15:02:59.189Z,101944.33
2019-02-16T15:05:07.160Z,101945.25
2019-02-16T15:07:14.496Z,101943.53
2019-02-16T15:09:21.324Z,101941.89
2019-02-16T15:11:28.033Z,101940.62
2019-02-16T15:13:34.992Z,101932.34
2019-02-16T15:15:42.554Z,101935.88
2019-02-16T15:17:50.436Z,101941.63
2019-02-16T15:19:57.952Z,101940.41
2019-02-16T15:22:05.044Z,101941.78
2019-02-16T15:24:11.937Z,101937.91
2019-02-16T15:26:28.358Z,101933.62
2019-02-16T15:28:30.614Z,101938.92
2019-02-16T15:30:37.849Z,101932.42
2019-02-16T15:32:45.245Z,101929.42
2019-02-16T15:34:52.649Z,101929.88
2019-02-16T15:37:00.070Z,101929.96
2019-02-16T15:39:08.680Z,101924.36
2019-02-16T15:41:16.428Z,101928.77
2019-02-16T15:43:23.897Z,101931.86
2019-02-16T15:45:32.507Z,101930.59
2019-02-16T15:47:40.276Z,101926.73
2019-02-16T15:49:47.510Z,101924.61
2019-02-16T15:51:54.413Z,101920.70
2019-02-16T15:54:01.958Z,101913.34
2019-02-16T15:56:10.791Z,101912.97
2019-02-16T15:58:18.241Z,101911.67
2019-02-16T16:00:27.626Z,101910.80
2019-02-16T16:02:34.498Z,101911.70
2019-02-16T16:04:41.951Z,101901.69
2019-02-16T16:06:49.093Z,101902.59
2019-02-16T16:08:59.163Z,101905.23
2019-02-16T16:11:11.977Z,101900.91
2019-02-16T16:13:39.371Z,101896.56
2019-02-16T16:15:50.928Z,101900.49
2019-02-16T16:17:59.599Z,101901.37
2019-02-16T16:22:36.421Z,101902.70
2019-02-16T16:25:01.621Z,101895.73
2019-02-16T16:27:25.732Z,101905.33
2019-02-16T16:29:40.200Z,101910.98
2019-02-16T16:31:55.351Z,101913.62
2019-02-16T16:34:03.910Z,101914.50
2019-02-16T16:36:21.330Z,101913.17
2019-02-16T16:38:29.940Z,101903.60
2019-02-16T16:40:43.161Z,101907.08
2019-02-16T16:43:01.805Z,101906.65
2019-02-16T16:45:18.950Z,101912.31
2019-02-16T16:47:33.251Z,101918.84
2019-02-16T16:49:50.883Z,101915.75
2019-02-16T16:52:18.034Z,101921.40
2019-02-16T16:54:34.647Z,101918.33
2019-02-16T16:56:44.277Z,101922.67
2019-02-16T16:58:53.022Z,101918.30
2019-02-16T17:01:19.833Z,101911.75
2019-02-16T17:03:26.523Z,101916.54
2019-02-16T17:05:44.235Z,101912.17
2019-02-16T17:08:03.583Z,101908.24
2019-02-16T17:10:30.963Z,101910.85
2019-02-16T17:12:42.472Z,101913.88
2019-02-16T17:15:10.923Z,101911.68
2019-02-16T17:17:22.204Z,101911.24
2019-02-16T17:19:30.753Z,101908.17
2019-02-16T17:21:54.664Z,101902.48
2019-02-16T17:24:13.814Z,101904.64
2019-02-16T17:26:20.783Z,101908.09
2019-02-16T17:28:45.996Z,101896.80
2019-02-16T17:30:54.973Z,101894.63
2019-02-16T17:33:03.793Z,101899.84
2019-02-16T17:35:19.263Z,101892.91
2019-02-16T17:37:27.710Z,101901.16
2019-02-16T17:40:00.327Z,101899.86
2019-02-16T17:42:08.904Z,101896.80
2019-02-16T17:44:35.863Z,101898.94
2019-02-16T17:46:47.795Z,101891.54
2019-02-16T17:49:12.890Z,101893.69
2019-02-16T17:51:39.424Z,101894.53
2019-02-16T17:53:46.294Z,101891.53
2019-02-16T17:56:13.753Z,101889.82
2019-02-16T17:58:22.711Z,101882.01
2019-02-16T18:00:32.903Z,101879.86
2019-02-16T18:02:41.772Z,101885.50
2019-02-16T18:04:56.421Z,101881.14
2019-02-16T18:07:05.055Z,101882.45
2019-02-16T18:09:25.713Z,101875.48
2019-02-16T18:11:40.664Z,101881.55
2019-02-16T18:13:52.953Z,101881.09
2019-02-16T18:16:02.037Z,101880.20
2019-02-16T18:18:27.635Z,101881.47
2019-02-16T18:20:36.675Z,101881.45
2019-02-16T18:22:45.917Z,101881.41
2019-02-16T18:25:11.602Z,101886.63
2019-02-16T18:27:20.924Z,101878.36
2019-02-16T18:29:46.033Z,101883.09
2019-02-16T18:32:11.554Z,101881.34
2019-02-16T18:34:26.311Z,101875.22
2019-02-16T18:36:35.074Z,101873.92
2019-02-16T18:38:43.824Z,101879.56
2019-02-16T18:40:52.506Z,101876.50
2019-02-16T18:43:04.671Z,101876.11
2019-02-16T18:45:23.113Z,101874.78
2019-02-16T18:47:41.354Z,101873.01
2019-02-16T18:49:56.909Z,101871.25
2019-02-16T18:52:10.559Z,101877.31
2019-02-16T18:54:23.662Z,101872.04
2019-02-16T18:56:31.156Z,101870.75
2019-02-16T18:58:47.767Z,101868.14
2019-02-16T19:01:06.106Z,101869.46
2019-02-16T19:03:21.596Z,101866.40
2019-02-16T19:05:46.842Z,101857.27
2019-02-16T19:08:14.575Z,101866.81
2019-02-16T19:10:26.751Z,101871.57
2019-02-16T19:12:52.483Z,101862.05
2019-02-16T19:15:08.776Z,101864.67
2019-02-16T19:17:28.244Z,101856.03
2019-02-16T19:19:53.544Z,101855.17
2019-02-16T19:22:00.842Z,101855.17
2019-02-16T19:24:15.052Z,101854.30
2019-02-16T19:26:29.449Z,101850.34
2019-02-16T19:28:52.016Z,101854.66
2019-02-16T19:31:17.369Z,101853.79
2019-02-16T19:33:37.611Z,101850.72
2019-02-16T19:35:50.994Z,101849.36
2019-02-16T19:38:15.821Z,101847.18
2019-02-16T19:40:34.474Z,101838.05
2019-02-16T19:42:49.614Z,101845.41
2019-02-16T19:45:17.047Z,101836.66
2019-02-16T19:47:32.447Z,101846.62
2019-02-16T19:49:40.672Z,101848.75
2019-02-16T19:51:53.672Z,101849.13
2019-02-16T19:54:04.441Z,101856.41
2019-02-16T19:56:14.954Z,101855.94
2019-02-16T19:58:28.437Z,101852.88
2019-02-16T20:00:48.565Z,101860.23
2019-02-16T20:03:04.077Z,101858.91
2019-02-16T20:05:21.318Z,101864.99
2019-02-16T20:07:42.272Z,101857.16
2019-02-16T20:09:59.406Z,101858.91
2019-02-16T20:12:19.887Z,101855.91
2019-02-16T20:14:29.844Z,101860.66
2019-02-16T20:16:39.360Z,101849.80
2019-02-16T20:18:59.334Z,101855.91
2019-02-16T20:21:11.380Z,101851.55
2019-02-16T20:23:21.707Z,101860.30
2019-02-16T20:25:49.234Z,101855.06
2019-02-16T20:28:09.716Z,101853.70
2019-02-16T20:30:28.075Z,101854.53
2019-02-16T20:32:37.252Z,101852.35
2019-02-16T20:34:48.012Z,101855.80
2019-02-16T20:36:57.126Z,101856.63
2019-02-16T20:39:11.087Z,101852.23
2019-02-16T20:41:38.134Z,101857.84
2019-02-16T20:43:53.069Z,101854.33
2019-02-16T20:46:05.910Z,101855.96
2019-02-16T20:48:19.233Z,101859.84
2019-02-16T20:50:38.039Z,101854.57
2019-02-16T20:52:47.003Z,101852.39
2019-02-16T20:55:08.440Z,101849.77
2019-02-16T20:57:32.654Z,101853.17
2019-02-16T20:59:51.023Z,101855.39
2019-02-16T21:02:03.133Z,101858.86
2019-02-16T21:04:18.336Z,101856.23
2019-02-16T21:06:27.174Z,101864.88
2019-02-16T21:08:34.236Z,101864.00
2019-02-16T21:10:43.333Z,101876.54
2019-02-16T21:12:51.904Z,101867.83
2019-02-16T21:15:08.260Z,101868.25
2019-02-16T21:17:31.734Z,101874.64
2019-02-16T21:19:44.135Z,101865.86
2019-02-16T21:22:07.247Z,101867.02
2019-02-16T21:24:22.684Z,101864.73
2019-02-16T21:26:47.414Z,101865.02
2019-02-16T21:29:08.254Z,101856.28
2019-02-16T21:31:29.633Z,101865.24
2019-02-16T21:33:48.092Z,101865.58
2019-02-16T21:36:02.694Z,101871.61
2019-02-16T21:38:29.393Z,101871.15
2019-02-16T21:40:47.154Z,101868.13
2019-02-16T21:42:58.833Z,101871.94
2019-02-16T21:45:08.291Z,101873.61
2019-02-16T21:47:35.106Z,101871.81
2019-02-16T21:50:00.414Z,101874.32
2019-02-16T21:52:12.924Z,101869.55
2019-02-16T21:54:22.986Z,101871.22
2019-02-16T21:56:44.175Z,101864.31
2019-02-16T21:58:53.211Z,101867.32
2019-02-16T22:01:08.251Z,101856.89
2019-02-16T22:03:20.944Z,101862.38
2019-02-16T22:05:32.878Z,101863.56
2019-02-16T22:07:41.613Z,101865.24
2019-02-16T22:09:53.180Z,101861.76
2019-02-16T22:12:08.762Z,101860.05
2019-02-16T22:14:16.704Z,101860.89
2019-02-16T22:16:23.643Z,101864.31
2019-02-16T22:18:30.514Z,101858.29
2019-02-16T22:20:37.502Z,101852.17
2019-02-16T22:22:44.973Z,101852.59
2019-02-16T22:24:52.264Z,101853.00
2019-02-16T22:26:59.243Z,101851.23
2019-02-16T22:29:07.594Z,101848.65
2019-02-16T22:31:15.023Z,101853.00
2019-02-16T22:33:22.720Z,101851.30
2019-02-16T22:35:30.005Z,101853.01
2019-02-16T22:37:37.003Z,101845.69
2019-02-16T22:39:43.954Z,101855.23
2019-02-16T22:41:51.531Z,101853.52
2019-02-16T22:43:58.413Z,101857.45
2019-02-16T22:46:05.382Z,101857.45
2019-02-16T22:48:12.790Z,101855.28
2019-02-16T22:50:19.926Z,101859.59
2019-02-16T22:52:26.790Z,101851.39
2019-02-16T22:54:34.953Z,101854.44
2019-02-16T22:56:41.751Z,101857.00
2019-02-16T22:58:49.493Z,101853.98
2019-02-16T23:00:56.939Z,101853.19
2019-02-16T23:03:05.985Z,101847.13
2019-02-16T23:05:13.004Z,101854.95
2019-02-16T23:07:20.463Z,101858.05
2019-02-16T23:09:28.677Z,101856.39
2019-02-16T23:11:35.903Z,101847.77
2019-02-16T23:13:42.881Z,101854.30
2019-02-16T23:15:50.415Z,101845.17
2019-02-16T23:17:57.603Z,101849.02
2019-02-16T23:20:05.241Z,101856.34
2019-02-16T23:22:12.311Z,101847.72
2019-02-16T23:24:19.348Z,101849.44
2019-02-16T23:26:27.381Z,101849.44
2019-02-16T23:28:38.914Z,101848.98
2019-02-16T23:30:43.406Z,101849.81
2019-02-16T23:32:50.086Z,101842.81
2019-02-16T23:34:57.276Z,101837.12
2019-02-16T23:37:04.320Z,101842.63
2019-02-16T23:39:12.690Z,101852.91
2019-02-16T23:41:19.702Z,101849.80
2019-02-16T23:43:34.313Z,101845.91
2019-02-16T23:46:01.693Z,101841.92
2019-02-16T23:48:09.587Z,101844.00
2019-02-16T23:50:17.082Z,101840.88
2019-02-16T23:52:25.165Z,101842.97
2019-02-16T23:54:32.871Z,101845.51
2019-02-16T23:56:40.373Z,101848.88
2019-02-16T23:58:49.523Z,101849.23
